sensor_id;sensor_type;location;lat;lon;timestamp;P1;durP1;ratioP1;P2;durP2;ratioP2
5807;SDS011;2930;42.678;23.312;2023-02-18T00:01:56;5.00;;;3.87;;
5807;SDS011;2930;42.678;23.312;2023-02-18T00:04:22;5.03;;;3.43;;
5807;SDS011;2930;42.678;23.312;2023-02-18T00:06:48;12.77;;;5.20;;
5807;SDS011;2930;42.678;23.312;2023-02-18T00:09:14;4.17;;;3.77;;
5807;SDS011;2930;42.678;23.312;2023-02-18T00:11:39;9.83;;;4.13;;
5807;SDS011;2930;42.678;23.312;2023-02-18T00:14:07;6.67;;;3.83;;
5807;SDS011;2930;42.678;23.312;2023-02-18T00:16:35;6.53;;;4.07;;
5807;SDS011;2930;42.678;23.312;2023-02-18T00:19:02;8.73;;;4.00;;
5807;SDS011;2930;42.678;23.312;2023-02-18T00:21:30;3.10;;;2.83;;
5807;SDS011;2930;42.678;23.312;2023-02-18T00:23:58;5.53;;;3.73;;
5807;SDS011;2930;42.678;23.312;2023-02-18T00:26:25;6.37;;;4.07;;
5807;SDS011;2930;42.678;23.312;2023-02-18T00:28:51;5.80;;;3.37;;
5807;SDS011;2930;42.678;23.312;2023-02-18T00:31:19;4.50;;;3.43;;
5807;SDS011;2930;42.678;23.312;2023-02-18T00:33:49;4.87;;;3.77;;
5807;SDS011;2930;42.678;23.312;2023-02-18T00:36:16;4.87;;;4.03;;
5807;SDS011;2930;42.678;23.312;2023-02-18T00:38:43;3.77;;;3.40;;
5807;SDS011;2930;42.678;23.312;2023-02-18T00:41:10;6.37;;;4.27;;
5807;SDS011;2930;42.678;23.312;2023-02-18T00:43:36;3.30;;;3.10;;
5807;SDS011;2930;42.678;23.312;2023-02-18T00:46:01;7.30;;;4.27;;
5807;SDS011;2930;42.678;23.312;2023-02-18T00:48:27;3.77;;;3.07;;
5807;SDS011;2930;42.678;23.312;2023-02-18T00:50:53;6.17;;;3.60;;
5807;SDS011;2930;42.678;23.312;2023-02-18T00:53:18;3.40;;;3.03;;
5807;SDS011;2930;42.678;23.312;2023-02-18T00:55:46;7.07;;;5.07;;
5807;SDS011;2930;42.678;23.312;2023-02-18T00:58:12;3.30;;;3.00;;
5807;SDS011;2930;42.678;23.312;2023-02-18T01:00:39;4.53;;;3.17;;
5807;SDS011;2930;42.678;23.312;2023-02-18T01:03:05;4.60;;;3.67;;
5807;SDS011;2930;42.678;23.312;2023-02-18T01:05:35;3.67;;;3.03;;
5807;SDS011;2930;42.678;23.312;2023-02-18T01:08:01;4.03;;;2.77;;
5807;SDS011;2930;42.678;23.312;2023-02-18T01:10:27;3.53;;;3.07;;
5807;SDS011;2930;42.678;23.312;2023-02-18T01:12:53;5.60;;;3.53;;
5807;SDS011;2930;42.678;23.312;2023-02-18T01:15:19;3.03;;;2.63;;
5807;SDS011;2930;42.678;23.312;2023-02-18T01:17:45;4.37;;;3.30;;
5807;SDS011;2930;42.678;23.312;2023-02-18T01:20:12;2.63;;;2.53;;
5807;SDS011;2930;42.678;23.312;2023-02-18T01:22:38;3.20;;;2.73;;
5807;SDS011;2930;42.678;23.312;2023-02-18T01:25:04;4.03;;;2.73;;
5807;SDS011;2930;42.678;23.312;2023-02-18T01:27:30;2.33;;;2.17;;
5807;SDS011;2930;42.678;23.312;2023-02-18T01:29:56;3.67;;;2.83;;
5807;SDS011;2930;42.678;23.312;2023-02-18T01:32:22;5.40;;;3.07;;
5807;SDS011;2930;42.678;23.312;2023-02-18T01:34:47;2.63;;;2.43;;
5807;SDS011;2930;42.678;23.312;2023-02-18T01:37:13;3.17;;;2.53;;
5807;SDS011;2930;42.678;23.312;2023-02-18T01:39:39;4.00;;;2.80;;
5807;SDS011;2930;42.678;23.312;2023-02-18T01:42:05;4.50;;;2.40;;
5807;SDS011;2930;42.678;23.312;2023-02-18T01:44:33;2.37;;;1.73;;
5807;SDS011;2930;42.678;23.312;2023-02-18T01:46:59;3.20;;;2.90;;
5807;SDS011;2930;42.678;23.312;2023-02-18T01:49:29;4.27;;;2.67;;
5807;SDS011;2930;42.678;23.312;2023-02-18T01:51:59;4.87;;;3.17;;
5807;SDS011;2930;42.678;23.312;2023-02-18T01:57:08;3.20;;;2.33;;
5807;SDS011;2930;42.678;23.312;2023-02-18T01:59:37;4.67;;;2.57;;
5807;SDS011;2930;42.678;23.312;2023-02-18T02:02:36;2.30;;;2.00;;
5807;SDS011;2930;42.678;23.312;2023-02-18T02:05:05;4.13;;;2.47;;
5807;SDS011;2930;42.678;23.312;2023-02-18T02:07:32;2.77;;;2.57;;
5807;SDS011;2930;42.678;23.312;2023-02-18T02:09:57;2.63;;;2.43;;
5807;SDS011;2930;42.678;23.312;2023-02-18T02:37:10;2.50;;;2.00;;
5807;SDS011;2930;42.678;23.312;2023-02-18T02:39:51;2.73;;;2.00;;
5807;SDS011;2930;42.678;23.312;2023-02-18T02:47:58;3.53;;;1.87;;
5807;SDS011;2930;42.678;23.312;2023-02-18T02:50:43;2.47;;;2.13;;
5807;SDS011;2930;42.678;23.312;2023-02-18T02:53:16;2.47;;;2.27;;
5807;SDS011;2930;42.678;23.312;2023-02-18T02:55:47;4.07;;;2.20;;
5807;SDS011;2930;42.678;23.312;2023-02-18T02:58:15;6.63;;;2.67;;
5807;SDS011;2930;42.678;23.312;2023-02-18T03:00:49;2.63;;;2.47;;
5807;SDS011;2930;42.678;23.312;2023-02-18T03:17:29;4.00;;;2.20;;
5807;SDS011;2930;42.678;23.312;2023-02-18T03:20:03;3.70;;;3.07;;
5807;SDS011;2930;42.678;23.312;2023-02-18T03:22:54;2.53;;;2.27;;
5807;SDS011;2930;42.678;23.312;2023-02-18T03:25:22;3.60;;;2.40;;
5807;SDS011;2930;42.678;23.312;2023-02-18T03:27:49;4.47;;;2.70;;
5807;SDS011;2930;42.678;23.312;2023-02-18T03:30:29;3.60;;;2.90;;
5807;SDS011;2930;42.678;23.312;2023-02-18T03:33:03;3.67;;;3.20;;
5807;SDS011;2930;42.678;23.312;2023-02-18T03:35:30;3.93;;;2.63;;
5807;SDS011;2930;42.678;23.312;2023-02-18T03:37:58;5.93;;;2.13;;
5807;SDS011;2930;42.678;23.312;2023-02-18T03:40:34;2.03;;;1.80;;
5807;SDS011;2930;42.678;23.312;2023-02-18T03:43:00;6.03;;;2.33;;
5807;SDS011;2930;42.678;23.312;2023-02-18T03:45:26;4.00;;;2.00;;
5807;SDS011;2930;42.678;23.312;2023-02-18T03:47:52;3.83;;;2.60;;
5807;SDS011;2930;42.678;23.312;2023-02-18T03:50:18;4.13;;;2.40;;
5807;SDS011;2930;42.678;23.312;2023-02-18T03:52:44;2.73;;;2.27;;
5807;SDS011;2930;42.678;23.312;2023-02-18T03:55:09;4.67;;;2.53;;
5807;SDS011;2930;42.678;23.312;2023-02-18T03:57:35;3.10;;;2.80;;
5807;SDS011;2930;42.678;23.312;2023-02-18T04:00:01;6.27;;;3.53;;
5807;SDS011;2930;42.678;23.312;2023-02-18T04:02:30;6.67;;;3.17;;
5807;SDS011;2930;42.678;23.312;2023-02-18T04:04:56;6.90;;;3.97;;
5807;SDS011;2930;42.678;23.312;2023-02-18T04:07:21;3.60;;;3.30;;
5807;SDS011;2930;42.678;23.312;2023-02-18T04:09:47;4.43;;;3.47;;
5807;SDS011;2930;42.678;23.312;2023-02-18T04:12:13;5.07;;;3.33;;
5807;SDS011;2930;42.678;23.312;2023-02-18T04:14:38;2.87;;;2.53;;
5807;SDS011;2930;42.678;23.312;2023-02-18T04:17:04;3.77;;;2.67;;
5807;SDS011;2930;42.678;23.312;2023-02-18T04:19:30;4.40;;;3.07;;
5807;SDS011;2930;42.678;23.312;2023-02-18T04:21:55;3.87;;;2.57;;
5807;SDS011;2930;42.678;23.312;2023-02-18T04:24:21;2.97;;;2.67;;
5807;SDS011;2930;42.678;23.312;2023-02-18T04:26:47;2.90;;;2.13;;
5807;SDS011;2930;42.678;23.312;2023-02-18T04:29:12;5.97;;;2.47;;
5807;SDS011;2930;42.678;23.312;2023-02-18T04:31:38;3.07;;;1.97;;
5807;SDS011;2930;42.678;23.312;2023-02-18T04:34:03;6.30;;;3.27;;
5807;SDS011;2930;42.678;23.312;2023-02-18T04:36:29;4.33;;;2.60;;
5807;SDS011;2930;42.678;23.312;2023-02-18T04:38:55;2.00;;;1.87;;
5807;SDS011;2930;42.678;23.312;2023-02-18T04:41:20;2.23;;;2.13;;
5807;SDS011;2930;42.678;23.312;2023-02-18T04:43:46;2.50;;;2.30;;
5807;SDS011;2930;42.678;23.312;2023-02-18T04:46:12;3.07;;;2.77;;
5807;SDS011;2930;42.678;23.312;2023-02-18T04:48:37;5.87;;;2.77;;
5807;SDS011;2930;42.678;23.312;2023-02-18T04:51:03;2.83;;;2.60;;
5807;SDS011;2930;42.678;23.312;2023-02-18T04:53:29;3.27;;;2.97;;
5807;SDS011;2930;42.678;23.312;2023-02-18T04:55:55;4.33;;;2.70;;
5807;SDS011;2930;42.678;23.312;2023-02-18T04:58:21;2.53;;;1.97;;
5807;SDS011;2930;42.678;23.312;2023-02-18T05:00:46;4.37;;;3.03;;
5807;SDS011;2930;42.678;23.312;2023-02-18T05:03:13;2.63;;;2.37;;
5807;SDS011;2930;42.678;23.312;2023-02-18T05:05:39;2.73;;;2.53;;
5807;SDS011;2930;42.678;23.312;2023-02-18T05:08:06;4.63;;;2.80;;
5807;SDS011;2930;42.678;23.312;2023-02-18T05:10:32;5.10;;;3.10;;
5807;SDS011;2930;42.678;23.312;2023-02-18T05:12:58;2.87;;;2.47;;
5807;SDS011;2930;42.678;23.312;2023-02-18T05:15:25;3.57;;;3.27;;
5807;SDS011;2930;42.678;23.312;2023-02-18T05:17:50;6.73;;;3.07;;
5807;SDS011;2930;42.678;23.312;2023-02-18T05:20:16;6.33;;;3.33;;
5807;SDS011;2930;42.678;23.312;2023-02-18T05:22:42;3.63;;;3.37;;
5807;SDS011;2930;42.678;23.312;2023-02-18T05:25:07;2.77;;;2.57;;
5807;SDS011;2930;42.678;23.312;2023-02-18T05:27:33;2.37;;;2.17;;
5807;SDS011;2930;42.678;23.312;2023-02-18T05:29:59;2.70;;;1.93;;
5807;SDS011;2930;42.678;23.312;2023-02-18T05:32:24;3.47;;;2.27;;
5807;SDS011;2930;42.678;23.312;2023-02-18T05:34:50;1.90;;;1.80;;
5807;SDS011;2930;42.678;23.312;2023-02-18T05:37:16;2.33;;;2.13;;
5807;SDS011;2930;42.678;23.312;2023-02-18T05:39:42;3.70;;;2.27;;
5807;SDS011;2930;42.678;23.312;2023-02-18T05:42:09;1.67;;;1.57;;
5807;SDS011;2930;42.678;23.312;2023-02-18T05:44:34;2.87;;;1.73;;
5807;SDS011;2930;42.678;23.312;2023-02-18T05:47:07;3.00;;;2.23;;
5807;SDS011;2930;42.678;23.312;2023-02-18T05:49:35;2.20;;;2.10;;
5807;SDS011;2930;42.678;23.312;2023-02-18T05:52:01;1.67;;;1.67;;
5807;SDS011;2930;42.678;23.312;2023-02-18T05:54:28;2.83;;;2.63;;
5807;SDS011;2930;42.678;23.312;2023-02-18T05:56:54;2.87;;;2.13;;
5807;SDS011;2930;42.678;23.312;2023-02-18T05:59:20;3.37;;;3.07;;
5807;SDS011;2930;42.678;23.312;2023-02-18T06:01:47;2.07;;;1.97;;
5807;SDS011;2930;42.678;23.312;2023-02-18T06:04:13;3.30;;;2.17;;
5807;SDS011;2930;42.678;23.312;2023-02-18T06:06:39;2.97;;;2.47;;
5807;SDS011;2930;42.678;23.312;2023-02-18T06:09:05;3.07;;;2.70;;
5807;SDS011;2930;42.678;23.312;2023-02-18T06:11:32;3.83;;;3.27;;
5807;SDS011;2930;42.678;23.312;2023-02-18T06:13:58;4.40;;;2.93;;
5807;SDS011;2930;42.678;23.312;2023-02-18T06:16:23;5.00;;;2.97;;
5807;SDS011;2930;42.678;23.312;2023-02-18T06:18:49;3.53;;;3.03;;
5807;SDS011;2930;42.678;23.312;2023-02-18T06:21:15;3.00;;;2.70;;
5807;SDS011;2930;42.678;23.312;2023-02-18T06:23:40;3.90;;;3.10;;
5807;SDS011;2930;42.678;23.312;2023-02-18T06:26:06;3.43;;;3.23;;
5807;SDS011;2930;42.678;23.312;2023-02-18T06:28:32;4.37;;;3.33;;
5807;SDS011;2930;42.678;23.312;2023-02-18T06:30:57;5.47;;;2.90;;
5807;SDS011;2930;42.678;23.312;2023-02-18T06:33:23;3.57;;;2.63;;
5807;SDS011;2930;42.678;23.312;2023-02-18T06:35:53;2.90;;;2.47;;
5807;SDS011;2930;42.678;23.312;2023-02-18T06:38:24;2.60;;;2.40;;
5807;SDS011;2930;42.678;23.312;2023-02-18T06:40:50;1.67;;;1.50;;
5807;SDS011;2930;42.678;23.312;2023-02-18T06:43:17;4.90;;;2.30;;
5807;SDS011;2930;42.678;23.312;2023-02-18T06:45:43;3.77;;;2.40;;
5807;SDS011;2930;42.678;23.312;2023-02-18T06:48:09;2.73;;;2.30;;
5807;SDS011;2930;42.678;23.312;2023-02-18T06:50:35;6.33;;;2.83;;
5807;SDS011;2930;42.678;23.312;2023-02-18T06:53:00;5.20;;;3.07;;
5807;SDS011;2930;42.678;23.312;2023-02-18T06:55:26;4.40;;;3.40;;
5807;SDS011;2930;42.678;23.312;2023-02-18T06:57:52;3.23;;;2.90;;
5807;SDS011;2930;42.678;23.312;2023-02-18T07:00:17;3.07;;;2.63;;
5807;SDS011;2930;42.678;23.312;2023-02-18T07:02:44;4.07;;;2.83;;
5807;SDS011;2930;42.678;23.312;2023-02-18T07:05:09;3.27;;;2.47;;
5807;SDS011;2930;42.678;23.312;2023-02-18T07:07:35;2.77;;;2.57;;
5807;SDS011;2930;42.678;23.312;2023-02-18T07:10:01;8.33;;;2.87;;
5807;SDS011;2930;42.678;23.312;2023-02-18T07:12:27;4.60;;;2.67;;
5807;SDS011;2930;42.678;23.312;2023-02-18T07:14:53;2.80;;;2.60;;
5807;SDS011;2930;42.678;23.312;2023-02-18T07:17:19;5.90;;;3.30;;
5807;SDS011;2930;42.678;23.312;2023-02-18T07:19:44;6.80;;;3.63;;
5807;SDS011;2930;42.678;23.312;2023-02-18T07:22:10;2.97;;;2.70;;
5807;SDS011;2930;42.678;23.312;2023-02-18T07:24:36;4.07;;;3.63;;
5807;SDS011;2930;42.678;23.312;2023-02-18T07:27:01;3.07;;;2.83;;
5807;SDS011;2930;42.678;23.312;2023-02-18T07:29:27;4.50;;;3.60;;
5807;SDS011;2930;42.678;23.312;2023-02-18T07:31:53;5.37;;;4.13;;
5807;SDS011;2930;42.678;23.312;2023-02-18T07:34:19;7.13;;;3.90;;
5807;SDS011;2930;42.678;23.312;2023-02-18T07:36:44;7.73;;;3.40;;
5807;SDS011;2930;42.678;23.312;2023-02-18T07:39:10;5.27;;;2.80;;
5807;SDS011;2930;42.678;23.312;2023-02-18T07:41:36;3.60;;;3.23;;
5807;SDS011;2930;42.678;23.312;2023-02-18T07:44:02;3.30;;;3.00;;
5807;SDS011;2930;42.678;23.312;2023-02-18T07:46:28;9.73;;;3.70;;
5807;SDS011;2930;42.678;23.312;2023-02-18T07:48:53;3.90;;;3.27;;
5807;SDS011;2930;42.678;23.312;2023-02-18T07:51:21;2.97;;;2.77;;
5807;SDS011;2930;42.678;23.312;2023-02-18T07:53:47;4.83;;;4.33;;
5807;SDS011;2930;42.678;23.312;2023-02-18T07:56:12;6.10;;;4.00;;
5807;SDS011;2930;42.678;23.312;2023-02-18T07:58:38;9.60;;;4.07;;
5807;SDS011;2930;42.678;23.312;2023-02-18T08:01:08;7.00;;;3.17;;
5807;SDS011;2930;42.678;23.312;2023-02-18T08:03:36;4.70;;;3.77;;
5807;SDS011;2930;42.678;23.312;2023-02-18T08:06:03;5.40;;;4.43;;
5807;SDS011;2930;42.678;23.312;2023-02-18T08:08:30;7.43;;;4.10;;
5807;SDS011;2930;42.678;23.312;2023-02-18T08:10:57;5.17;;;3.50;;
5807;SDS011;2930;42.678;23.312;2023-02-18T08:13:28;4.90;;;3.73;;
5807;SDS011;2930;42.678;23.312;2023-02-18T08:15:55;4.00;;;3.30;;
5807;SDS011;2930;42.678;23.312;2023-02-18T08:18:21;4.73;;;3.70;;
5807;SDS011;2930;42.678;23.312;2023-02-18T08:20:49;7.13;;;4.03;;
5807;SDS011;2930;42.678;23.312;2023-02-18T08:23:17;5.73;;;4.10;;
5807;SDS011;2930;42.678;23.312;2023-02-18T08:25:53;5.43;;;4.27;;
5807;SDS011;2930;42.678;23.312;2023-02-18T08:28:19;5.65;;;4.15;;
5807;SDS011;2930;42.678;23.312;2023-02-18T08:30:47;7.80;;;4.90;;
5807;SDS011;2930;42.678;23.312;2023-02-18T08:33:14;5.75;;;4.30;;
5807;SDS011;2930;42.678;23.312;2023-02-18T08:35:40;11.90;;;5.00;;
5807;SDS011;2930;42.678;23.312;2023-02-18T08:38:06;8.57;;;5.07;;
5807;SDS011;2930;42.678;23.312;2023-02-18T08:40:32;5.88;;;4.82;;
5807;SDS011;2930;42.678;23.312;2023-02-18T08:42:58;6.38;;;4.38;;
5807;SDS011;2930;42.678;23.312;2023-02-18T08:45:23;11.73;;;5.28;;
5807;SDS011;2930;42.678;23.312;2023-02-18T08:47:49;8.45;;;5.05;;
5807;SDS011;2930;42.678;23.312;2023-02-18T08:50:15;13.13;;;4.85;;
5807;SDS011;2930;42.678;23.312;2023-02-18T08:52:41;9.13;;;5.00;;
5807;SDS011;2930;42.678;23.312;2023-02-18T08:55:07;19.42;;;5.65;;
5807;SDS011;2930;42.678;23.312;2023-02-18T08:57:33;10.70;;;5.68;;
5807;SDS011;2930;42.678;23.312;2023-02-18T08:59:59;8.32;;;5.13;;
5807;SDS011;2930;42.678;23.312;2023-02-18T09:02:24;6.30;;;4.80;;
5807;SDS011;2930;42.678;23.312;2023-02-18T09:04:50;7.72;;;4.57;;
5807;SDS011;2930;42.678;23.312;2023-02-18T09:07:17;8.50;;;5.05;;
5807;SDS011;2930;42.678;23.312;2023-02-18T09:09:42;7.30;;;5.30;;
5807;SDS011;2930;42.678;23.312;2023-02-18T09:12:08;5.78;;;5.20;;
5807;SDS011;2930;42.678;23.312;2023-02-18T09:14:33;9.38;;;5.63;;
5807;SDS011;2930;42.678;23.312;2023-02-18T09:16:59;7.38;;;5.50;;
5807;SDS011;2930;42.678;23.312;2023-02-18T09:19:25;10.60;;;5.88;;
5807;SDS011;2930;42.678;23.312;2023-02-18T09:21:51;9.15;;;5.85;;
5807;SDS011;2930;42.678;23.312;2023-02-18T09:24:20;10.18;;;6.03;;
5807;SDS011;2930;42.678;23.312;2023-02-18T09:26:45;9.68;;;5.38;;
5807;SDS011;2930;42.678;23.312;2023-02-18T09:29:11;8.15;;;5.38;;
5807;SDS011;2930;42.678;23.312;2023-02-18T09:31:37;8.63;;;5.50;;
5807;SDS011;2930;42.678;23.312;2023-02-18T09:34:03;8.07;;;5.30;;
5807;SDS011;2930;42.678;23.312;2023-02-18T09:36:30;11.93;;;6.30;;
5807;SDS011;2930;42.678;23.312;2023-02-18T09:38:56;9.30;;;5.70;;
5807;SDS011;2930;42.678;23.312;2023-02-18T09:41:42;11.43;;;6.10;;
5807;SDS011;2930;42.678;23.312;2023-02-18T09:46:50;8.70;;;5.90;;
5807;SDS011;2930;42.678;23.312;2023-02-18T09:49:24;11.93;;;5.63;;
5807;SDS011;2930;42.678;23.312;2023-02-18T09:51:52;10.15;;;6.13;;
5807;SDS011;2930;42.678;23.312;2023-02-18T09:54:20;9.65;;;6.00;;
5807;SDS011;2930;42.678;23.312;2023-02-18T09:56:46;12.07;;;6.60;;
5807;SDS011;2930;42.678;23.312;2023-02-18T09:59:17;9.75;;;6.20;;
5807;SDS011;2930;42.678;23.312;2023-02-18T10:01:45;11.10;;;6.15;;
5807;SDS011;2930;42.678;23.312;2023-02-18T10:04:17;8.48;;;6.40;;
5807;SDS011;2930;42.678;23.312;2023-02-18T10:06:47;8.98;;;5.93;;
5807;SDS011;2930;42.678;23.312;2023-02-18T10:09:20;9.70;;;6.90;;
5807;SDS011;2930;42.678;23.312;2023-02-18T10:11:51;11.52;;;6.38;;
5807;SDS011;2930;42.678;23.312;2023-02-18T10:14:24;10.38;;;6.85;;
5807;SDS011;2930;42.678;23.312;2023-02-18T10:16:50;7.53;;;6.50;;
5807;SDS011;2930;42.678;23.312;2023-02-18T10:19:22;8.23;;;6.05;;
5807;SDS011;2930;42.678;23.312;2023-02-18T10:21:48;8.68;;;6.25;;
5807;SDS011;2930;42.678;23.312;2023-02-18T10:24:35;16.27;;;6.25;;
5807;SDS011;2930;42.678;23.312;2023-02-18T10:27:07;6.78;;;5.38;;
5807;SDS011;2930;42.678;23.312;2023-02-18T10:29:35;8.10;;;5.10;;
5807;SDS011;2930;42.678;23.312;2023-02-18T10:37:45;6.13;;;4.97;;
5807;SDS011;2930;42.678;23.312;2023-02-18T10:42:57;5.30;;;4.30;;
5807;SDS011;2930;42.678;23.312;2023-02-18T10:45:31;7.65;;;5.80;;
5807;SDS011;2930;42.678;23.312;2023-02-18T10:48:10;9.07;;;6.80;;
5807;SDS011;2930;42.678;23.312;2023-02-18T10:50:46;8.63;;;6.35;;
5807;SDS011;2930;42.678;23.312;2023-02-18T10:55:59;9.65;;;5.72;;
5807;SDS011;2930;42.678;23.312;2023-02-18T10:58:32;7.10;;;6.03;;
5807;SDS011;2930;42.678;23.312;2023-02-18T11:01:19;4.30;;;3.90;;
5807;SDS011;2930;42.678;23.312;2023-02-18T11:03:46;2.88;;;2.67;;
5807;SDS011;2930;42.678;23.312;2023-02-18T11:06:26;5.90;;;5.28;;
5807;SDS011;2930;42.678;23.312;2023-02-18T11:14:49;5.72;;;4.55;;
5807;SDS011;2930;42.678;23.312;2023-02-18T11:17:40;4.32;;;3.97;;
5807;SDS011;2930;42.678;23.312;2023-02-18T11:25:35;3.45;;;3.25;;
5807;SDS011;2930;42.678;23.312;2023-02-18T11:28:04;3.90;;;2.50;;
5807;SDS011;2930;42.678;23.312;2023-02-18T11:30:39;3.08;;;1.55;;
5807;SDS011;2930;42.678;23.312;2023-02-18T11:33:15;4.22;;;2.70;;
5807;SDS011;2930;42.678;23.312;2023-02-18T11:35:51;2.13;;;1.67;;
5807;SDS011;2930;42.678;23.312;2023-02-18T11:40:54;4.13;;;2.20;;
5807;SDS011;2930;42.678;23.312;2023-02-18T11:43:21;3.38;;;1.60;;
5807;SDS011;2930;42.678;23.312;2023-02-18T11:46:07;1.20;;;1.20;;
5807;SDS011;2930;42.678;23.312;2023-02-18T11:48:35;0.82;;;0.75;;
5807;SDS011;2930;42.678;23.312;2023-02-18T11:51:01;0.98;;;0.70;;
5807;SDS011;2930;42.678;23.312;2023-02-18T11:53:31;1.05;;;0.90;;
5807;SDS011;2930;42.678;23.312;2023-02-18T11:56:01;0.85;;;0.57;;
5807;SDS011;2930;42.678;23.312;2023-02-18T11:59:03;1.83;;;0.80;;
5807;SDS011;2930;42.678;23.312;2023-02-18T12:01:40;1.42;;;1.02;;
5807;SDS011;2930;42.678;23.312;2023-02-18T12:04:15;0.60;;;0.60;;
5807;SDS011;2930;42.678;23.312;2023-02-18T12:09:31;0.57;;;0.57;;
5807;SDS011;2930;42.678;23.312;2023-02-18T12:12:16;1.58;;;0.80;;
5807;SDS011;2930;42.678;23.312;2023-02-18T12:14:53;1.75;;;1.08;;
5807;SDS011;2930;42.678;23.312;2023-02-18T12:31:20;2.13;;;2.03;;
5807;SDS011;2930;42.678;23.312;2023-02-18T12:42:01;2.25;;;2.05;;
5807;SDS011;2930;42.678;23.312;2023-02-18T12:55:24;2.17;;;1.55;;
5807;SDS011;2930;42.678;23.312;2023-02-18T13:03:36;3.58;;;1.80;;
5807;SDS011;2930;42.678;23.312;2023-02-18T13:16:40;1.42;;;1.30;;
5807;SDS011;2930;42.678;23.312;2023-02-18T13:19:20;1.65;;;1.20;;
5807;SDS011;2930;42.678;23.312;2023-02-18T13:22:05;3.92;;;1.40;;
5807;SDS011;2930;42.678;23.312;2023-02-18T13:24:37;7.35;;;0.98;;
5807;SDS011;2930;42.678;23.312;2023-02-18T13:40:32;2.00;;;1.90;;
5807;SDS011;2930;42.678;23.312;2023-02-18T13:46:25;1.30;;;1.30;;
5807;SDS011;2930;42.678;23.312;2023-02-18T13:48:52;2.35;;;1.42;;
5807;SDS011;2930;42.678;23.312;2023-02-18T13:54:00;1.40;;;1.27;;
5807;SDS011;2930;42.678;23.312;2023-02-18T13:56:30;1.63;;;1.60;;
5807;SDS011;2930;42.678;23.312;2023-02-18T14:01:43;1.98;;;1.83;;
5807;SDS011;2930;42.678;23.312;2023-02-18T14:09:50;2.15;;;1.45;;
5807;SDS011;2930;42.678;23.312;2023-02-18T14:17:46;3.30;;;1.52;;
5807;SDS011;2930;42.678;23.312;2023-02-18T14:22:56;8.02;;;1.75;;
5807;SDS011;2930;42.678;23.312;2023-02-18T14:25:34;2.50;;;1.70;;
5807;SDS011;2930;42.678;23.312;2023-02-18T14:28:11;1.85;;;1.58;;
5807;SDS011;2930;42.678;23.312;2023-02-18T14:39:13;1.40;;;1.33;;
5807;SDS011;2930;42.678;23.312;2023-02-18T14:42:01;2.42;;;1.88;;
5807;SDS011;2930;42.678;23.312;2023-02-18T14:50:10;1.80;;;1.70;;
5807;SDS011;2930;42.678;23.312;2023-02-18T14:52:39;1.55;;;1.45;;
5807;SDS011;2930;42.678;23.312;2023-02-18T14:55:18;2.47;;;1.52;;
5807;SDS011;2930;42.678;23.312;2023-02-18T14:57:49;2.70;;;1.70;;
5807;SDS011;2930;42.678;23.312;2023-02-18T15:00:21;1.50;;;1.40;;
5807;SDS011;2930;42.678;23.312;2023-02-18T15:02:56;5.25;;;1.70;;
5807;SDS011;2930;42.678;23.312;2023-02-18T15:05:25;1.60;;;1.50;;
5807;SDS011;2930;42.678;23.312;2023-02-18T15:08:01;1.92;;;1.83;;
5807;SDS011;2930;42.678;23.312;2023-02-18T15:11:04;1.45;;;1.45;;
5807;SDS011;2930;42.678;23.312;2023-02-18T15:15:53;1.77;;;1.67;;
5807;SDS011;2930;42.678;23.312;2023-02-18T15:18:35;1.77;;;1.67;;
5807;SDS011;2930;42.678;23.312;2023-02-18T15:21:06;1.50;;;1.35;;
5807;SDS011;2930;42.678;23.312;2023-02-18T15:23:38;2.25;;;1.40;;
5807;SDS011;2930;42.678;23.312;2023-02-18T15:26:05;1.92;;;1.52;;
5807;SDS011;2930;42.678;23.312;2023-02-18T15:28:33;2.42;;;2.13;;
5807;SDS011;2930;42.678;23.312;2023-02-18T15:31:08;2.55;;;2.03;;
5807;SDS011;2930;42.678;23.312;2023-02-18T15:33:41;1.85;;;1.67;;
5807;SDS011;2930;42.678;23.312;2023-02-18T15:36:11;3.47;;;1.80;;
5807;SDS011;2930;42.678;23.312;2023-02-18T15:38:38;2.20;;;2.10;;
5807;SDS011;2930;42.678;23.312;2023-02-18T15:41:14;3.53;;;1.58;;
5807;SDS011;2930;42.678;23.312;2023-02-18T15:43:51;2.63;;;2.08;;
5807;SDS011;2930;42.678;23.312;2023-02-18T15:46:17;1.83;;;1.73;;
5807;SDS011;2930;42.678;23.312;2023-02-18T15:48:45;2.55;;;2.38;;
5807;SDS011;2930;42.678;23.312;2023-02-18T15:51:13;4.03;;;1.90;;
5807;SDS011;2930;42.678;23.312;2023-02-18T15:53:46;2.25;;;2.15;;
5807;SDS011;2930;42.678;23.312;2023-02-18T15:56:23;2.13;;;1.92;;
5807;SDS011;2930;42.678;23.312;2023-02-18T16:01:50;2.00;;;1.90;;
5807;SDS011;2930;42.678;23.312;2023-02-18T16:04:19;2.70;;;2.50;;
5807;SDS011;2930;42.678;23.312;2023-02-18T16:06:52;4.47;;;2.90;;
5807;SDS011;2930;42.678;23.312;2023-02-18T16:09:31;3.40;;;2.80;;
5807;SDS011;2930;42.678;23.312;2023-02-18T16:12:01;3.92;;;3.42;;
5807;SDS011;2930;42.678;23.312;2023-02-18T16:14:42;3.75;;;3.45;;
5807;SDS011;2930;42.678;23.312;2023-02-18T16:19:48;4.30;;;3.72;;
5807;SDS011;2930;42.678;23.312;2023-02-18T16:22:35;5.78;;;3.20;;
5807;SDS011;2930;42.678;23.312;2023-02-18T16:30:23;3.70;;;3.00;;
5807;SDS011;2930;42.678;23.312;2023-02-18T16:32:51;2.70;;;2.50;;
5807;SDS011;2930;42.678;23.312;2023-02-18T16:35:17;2.90;;;2.65;;
5807;SDS011;2930;42.678;23.312;2023-02-18T16:37:43;3.25;;;2.65;;
5807;SDS011;2930;42.678;23.312;2023-02-18T16:42:36;2.53;;;2.33;;
5807;SDS011;2930;42.678;23.312;2023-02-18T16:45:01;1.85;;;1.75;;
5807;SDS011;2930;42.678;23.312;2023-02-18T16:47:27;3.53;;;1.73;;
5807;SDS011;2930;42.678;23.312;2023-02-18T16:49:53;2.20;;;2.00;;
5807;SDS011;2930;42.678;23.312;2023-02-18T16:52:19;2.65;;;2.45;;
5807;SDS011;2930;42.678;23.312;2023-02-18T16:54:44;3.22;;;2.17;;
5807;SDS011;2930;42.678;23.312;2023-02-18T16:57:12;2.45;;;2.35;;
5807;SDS011;2930;42.678;23.312;2023-02-18T16:59:38;3.22;;;3.03;;
5807;SDS011;2930;42.678;23.312;2023-02-18T17:02:03;3.53;;;3.25;;
5807;SDS011;2930;42.678;23.312;2023-02-18T17:04:37;4.95;;;3.10;;
5807;SDS011;2930;42.678;23.312;2023-02-18T17:08:52;3.22;;;2.80;;
5807;SDS011;2930;42.678;23.312;2023-02-18T17:11:20;4.05;;;3.33;;
5807;SDS011;2930;42.678;23.312;2023-02-18T17:13:49;2.60;;;2.50;;
5807;SDS011;2930;42.678;23.312;2023-02-18T17:16:17;2.15;;;1.77;;
5807;SDS011;2930;42.678;23.312;2023-02-18T17:18:43;2.67;;;2.42;;
5807;SDS011;2930;42.678;23.312;2023-02-18T17:21:11;4.63;;;2.70;;
5807;SDS011;2930;42.678;23.312;2023-02-18T17:23:42;4.35;;;2.60;;
5807;SDS011;2930;42.678;23.312;2023-02-18T17:26:18;2.05;;;1.90;;
5807;SDS011;2930;42.678;23.312;2023-02-18T17:28:51;2.25;;;2.10;;
5807;SDS011;2930;42.678;23.312;2023-02-18T17:31:20;2.10;;;1.95;;
5807;SDS011;2930;42.678;23.312;2023-02-18T17:33:50;1.67;;;1.52;;
5807;SDS011;2930;42.678;23.312;2023-02-18T17:36:17;2.40;;;1.92;;
5807;SDS011;2930;42.678;23.312;2023-02-18T17:38:43;1.65;;;1.55;;
5807;SDS011;2930;42.678;23.312;2023-02-18T17:41:10;2.08;;;1.52;;
5807;SDS011;2930;42.678;23.312;2023-02-18T17:43:37;2.17;;;2.03;;
5807;SDS011;2930;42.678;23.312;2023-02-18T17:46:03;5.70;;;1.52;;
5807;SDS011;2930;42.678;23.312;2023-02-18T17:48:30;2.50;;;1.75;;
5807;SDS011;2930;42.678;23.312;2023-02-18T17:50:56;1.83;;;1.70;;
5807;SDS011;2930;42.678;23.312;2023-02-18T17:53:22;9.30;;;1.58;;
5807;SDS011;2930;42.678;23.312;2023-02-18T17:55:48;2.25;;;2.15;;
5807;SDS011;2930;42.678;23.312;2023-02-18T17:58:14;3.88;;;1.67;;
5807;SDS011;2930;42.678;23.312;2023-02-18T18:00:51;1.25;;;1.13;;
5807;SDS011;2930;42.678;23.312;2023-02-18T18:03:18;1.50;;;1.50;;
5807;SDS011;2930;42.678;23.312;2023-02-18T18:05:45;1.83;;;1.73;;
5807;SDS011;2930;42.678;23.312;2023-02-18T18:08:12;2.25;;;1.83;;
5807;SDS011;2930;42.678;23.312;2023-02-18T18:10:40;3.75;;;1.55;;
5807;SDS011;2930;42.678;23.312;2023-02-18T18:13:14;3.97;;;1.63;;
5807;SDS011;2930;42.678;23.312;2023-02-18T18:15:46;4.15;;;2.00;;
5807;SDS011;2930;42.678;23.312;2023-02-18T18:18:12;2.25;;;2.05;;
5807;SDS011;2930;42.678;23.312;2023-02-18T18:20:39;2.03;;;1.80;;
5807;SDS011;2930;42.678;23.312;2023-02-18T18:23:10;1.95;;;1.60;;
5807;SDS011;2930;42.678;23.312;2023-02-18T18:25:40;1.85;;;1.75;;